Time;durP1;ratioP1;P1;durP2;ratioP2;P2;SDS_P1;SDS_P2;PMS_P1;PMS_P2;Temp;Humidity;BMP_temperature;BMP_pressure;BME280_temperature;BME280_humidity;BME280_pressure;Samples;Min_cycle;Max_cycle;Signal;HPM_P1;HPM_P2
2024/01/26 00:01:29;;;;;;;;;;;-0.70;99.90;;;;;;5053509;28;19940;-81
2024/01/26 00:03:57;;;;;;;;;;;-0.70;99.90;;;;;;5053618;28;19904;-80
2024/01/26 00:06:22;;;;;;;;;;;-0.80;99.90;;;;;;5053996;28;19911;-82
2024/01/26 00:08:48;;;;;;;;;;;-0.80;99.90;;;;;;5034962;28;20350;-82
2024/01/26 00:11:14;;;;;;;;;;;-0.80;99.90;;;;;;5064995;28;19924;-82
2024/01/26 00:13:40;;;;;;;;;;;-0.80;99.90;;;;;;5037865;28;20384;-82
2024/01/26 00:16:05;;;;;;;;;;;-0.80;99.90;;;;;;5053724;28;19912;-80
2024/01/26 00:18:31;;;;;;;;;;;-0.90;99.90;;;;;;5057573;28;19909;-86
2024/01/26 00:20:57;;;;;;;;;;;-0.90;99.90;;;;;;5041806;28;19923;-84
2024/01/26 00:23:23;;;;;;;;;;;-0.90;99.90;;;;;;5059782;28;19905;-85
2024/01/26 00:25:48;;;;;;;;;;;-0.90;99.90;;;;;;5050851;28;19904;-85
2024/01/26 00:28:14;;;;;;;;;;;-0.90;99.90;;;;;;5054110;28;19954;-85
2024/01/26 00:30:39;;;;;;;;;;;-0.90;99.90;;;;;;5053221;28;19958;-86
2024/01/26 00:33:05;;;;;;;;;;;-0.90;99.90;;;;;;5052957;28;19936;-85
2024/01/26 00:35:31;;;;;;;;;;;-0.90;99.90;;;;;;5052941;28;20361;-85
2024/01/26 00:37:56;;;;;;;;;;;-0.90;99.90;;;;;;5054007;28;20439;-86
2024/01/26 00:40:22;;;;;;;;;;;-0.90;99.90;;;;;;5025455;28;20433;-85
2024/01/26 00:42:48;;;;;;;;;;;-0.90;99.90;;;;;;5035617;28;19904;-87
2024/01/26 00:45:13;;;;;;;;;;;-0.80;99.90;;;;;;5053500;28;19947;-85
2024/01/26 00:47:39;;;;;;;;;;;-0.90;99.90;;;;;;5068374;28;19892;-85
2024/01/26 00:50:05;;;;;;;;;;;-0.90;99.90;;;;;;5064130;28;19913;-85
2024/01/26 00:52:31;;;;;;;;;;;-1.00;99.90;;;;;;5034906;28;19912;-85
2024/01/26 00:54:56;;;;;;;;;;;-1.00;99.90;;;;;;5035539;28;19905;-87
2024/01/26 00:57:22;;;;;;;;;;;-1.10;99.90;;;;;;5053423;28;19911;-85
2024/01/26 00:59:48;;;;;;;;;;;-1.10;99.90;;;;;;5054132;28;19951;-86
2024/01/26 01:02:14;;;;;;;;;;;-1.20;99.90;;;;;;5038248;28;20499;-86
2024/01/26 01:04:40;;;;;;;;;;;-1.30;99.90;;;;;;5034282;28;20392;-86
2024/01/26 01:07:08;;;;;;;;;;;-1.30;99.90;;;;;;5052812;28;19909;-85
2024/01/26 01:09:34;;;;;;;;;;;-1.30;99.90;;;;;;5053407;28;20282;-85
2024/01/26 01:12:00;;;;;;;;;;;-1.40;99.90;;;;;;5066017;28;19928;-86
2024/01/26 01:14:28;;;;;;;;;;;-1.50;99.90;;;;;;5053153;28;19908;-84
2024/01/26 01:16:56;;;;;;;;;;;-1.60;99.90;;;;;;5052825;28;19999;-87
2024/01/26 01:19:22;;;;;;;;;;;-1.60;99.90;;;;;;5053329;28;19904;-86
2024/01/26 01:21:48;;;;;;;;;;;-1.60;99.90;;;;;;5052383;28;19905;-85
2024/01/26 01:24:13;;;;;;;;;;;-1.60;99.90;;;;;;5037524;28;19909;-87
2024/01/26 01:26:39;;;;;;;;;;;-1.60;99.90;;;;;;5032225;28;19940;-84
2024/01/26 01:29:06;;;;;;;;;;;-1.60;99.90;;;;;;5042971;28;20383;-85
2024/01/26 01:31:32;;;;;;;;;;;-1.70;99.90;;;;;;5040543;28;19925;-86
2024/01/26 01:33:57;;;;;;;;;;;-1.70;99.90;;;;;;5055884;28;20278;-87
2024/01/26 01:36:23;;;;;;;;;;;-1.80;99.90;;;;;;5052867;28;19905;-87
2024/01/26 01:38:49;;;;;;;;;;;-1.80;99.90;;;;;;5035132;28;19909;-87
2024/01/26 01:41:14;;;;;;;;;;;-1.80;99.90;;;;;;5052076;28;19944;-88
2024/01/26 01:43:40;;;;;;;;;;;-1.80;99.90;;;;;;5072632;28;19893;-86
2024/01/26 01:46:06;;;;;;;;;;;-1.80;99.90;;;;;;5068505;28;19968;-87
2024/01/26 01:48:32;;;;;;;;;;;-1.80;99.90;;;;;;5034815;28;19952;-87
2024/01/26 01:50:58;;;;;;;;;;;-1.70;99.90;;;;;;5052629;28;19913;-86
2024/01/26 01:53:24;;;;;;;;;;;-1.80;99.90;;;;;;5053626;28;19905;-86
2024/01/26 01:55:51;;;;;;;;;;;-1.80;99.90;;;;;;5066187;28;19951;-85
2024/01/26 01:58:17;;;;;;;;;;;-1.80;99.90;;;;;;5071625;28;19904;-84
2024/01/26 02:00:43;;;;;;;;;;;-1.80;99.90;;;;;;5047640;28;19911;-85
2024/01/26 02:03:09;;;;;;;;;;;-1.80;99.90;;;;;;5053562;28;19905;-86
2024/01/26 02:05:34;;;;;;;;;;;-1.80;99.90;;;;;;5032053;28;19905;-85
2024/01/26 02:08:00;;;;;;;;;;;-1.90;99.90;;;;;;5052510;28;19909;-86
2024/01/26 02:10:26;;;;;;;;;;;-1.90;99.90;;;;;;5052357;28;19920;-86
2024/01/26 02:12:51;;;;;;;;;;;-1.90;99.90;;;;;;5048871;28;19992;-86
2024/01/26 02:15:17;;;;;;;;;;;-2.00;99.90;;;;;;5052730;28;19904;-85
2024/01/26 02:17:44;;;;;;;;;;;-1.90;99.90;;;;;;5054743;28;19909;-85
2024/01/26 02:20:10;;;;;;;;;;;-1.90;99.90;;;;;;5057799;28;20380;-89
2024/01/26 02:22:36;;;;;;;;;;;-2.00;99.90;;;;;;5056374;28;19908;-88
2024/01/26 02:25:02;;;;;;;;;;;-2.00;99.90;;;;;;5057179;28;20223;-86
2024/01/26 02:27:27;;;;;;;;;;;-2.10;99.90;;;;;;5057566;28;19904;-88
2024/01/26 02:29:53;;;;;;;;;;;-2.10;99.90;;;;;;5065678;28;19916;-89
2024/01/26 02:32:18;;;;;;;;;;;-2.10;99.90;;;;;;5060232;28;20361;-88
2024/01/26 02:34:45;;;;;;;;;;;-2.00;99.90;;;;;;5079568;28;19931;-87
2024/01/26 02:37:10;;;;;;;;;;;-2.00;99.90;;;;;;5060620;28;19913;-88
2024/01/26 02:39:37;;;;;;;;;;;-2.10;99.90;;;;;;5055451;28;20373;-87
2024/01/26 02:42:03;;;;;;;;;;;-2.10;99.90;;;;;;5056496;28;19916;-88
2024/01/26 02:44:31;;;;;;;;;;;-2.10;99.90;;;;;;5055585;28;19917;-87
2024/01/26 02:46:56;;;;;;;;;;;-2.10;99.90;;;;;;5056551;28;19944;-87
2024/01/26 02:49:22;;;;;;;;;;;-2.00;99.90;;;;;;5058064;28;19959;-88
2024/01/26 02:51:48;;;;;;;;;;;-2.00;99.90;;;;;;5058850;28;19913;-86
2024/01/26 02:54:13;;;;;;;;;;;-2.00;99.90;;;;;;5072199;28;19909;-86
2024/01/26 02:56:39;;;;;;;;;;;-2.00;99.90;;;;;;5061645;28;20341;-88
2024/01/26 02:59:05;;;;;;;;;;;-2.00;99.90;;;;;;5059835;28;20410;-87
2024/01/26 03:01:31;;;;;;;;;;;-1.90;99.90;;;;;;5042423;28;19927;-87
2024/01/26 03:03:56;;;;;;;;;;;-1.90;99.90;;;;;;5060692;28;19921;-87
2024/01/26 03:06:22;;;;;;;;;;;-1.80;99.90;;;;;;5039049;28;20320;-87
2024/01/26 03:08:47;;;;;;;;;;;-1.80;99.90;;;;;;5056297;28;19905;-86
2024/01/26 03:11:14;;;;;;;;;;;-1.80;99.90;;;;;;5054926;28;19912;-88
2024/01/26 03:13:40;;;;;;;;;;;-1.90;99.90;;;;;;5037322;28;19911;-86
2024/01/26 03:16:06;;;;;;;;;;;-1.90;99.90;;;;;;5054168;28;19987;-86
2024/01/26 03:18:31;;;;;;;;;;;-1.90;99.90;;;;;;5058647;28;19919;-82
2024/01/26 03:20:57;;;;;;;;;;;-2.00;99.90;;;;;;5064525;28;19962;-86
2024/01/26 03:23:23;;;;;;;;;;;-2.00;99.90;;;;;;5055234;28;20007;-86
2024/01/26 03:25:48;;;;;;;;;;;-2.10;99.90;;;;;;5051712;28;19905;-85
2024/01/26 03:28:14;;;;;;;;;;;-2.10;99.90;;;;;;5040390;28;20054;-87
2024/01/26 03:30:40;;;;;;;;;;;-2.10;99.90;;;;;;5072014;28;19923;-90
2024/01/26 03:33:07;;;;;;;;;;;-2.10;99.90;;;;;;5050102;28;19917;-89
2024/01/26 03:35:32;;;;;;;;;;;-2.10;99.90;;;;;;5055672;28;19904;-88
2024/01/26 03:37:58;;;;;;;;;;;-2.10;99.90;;;;;;5056096;28;19951;-86
2024/01/26 03:40:24;;;;;;;;;;;-2.10;99.90;;;;;;5055060;28;19951;-86
2024/01/26 03:42:50;;;;;;;;;;;-2.10;99.90;;;;;;5056462;28;19911;-87
2024/01/26 03:45:17;;;;;;;;;;;-2.20;99.90;;;;;;5035332;28;19950;-86
2024/01/26 03:47:43;;;;;;;;;;;-2.20;99.90;;;;;;5045546;28;19912;-89
2024/01/26 03:50:09;;;;;;;;;;;-2.20;99.90;;;;;;5030018;28;19909;-88
2024/01/26 03:52:34;;;;;;;;;;;-2.20;99.90;;;;;;5025106;28;19905;-90
2024/01/26 03:55:01;;;;;;;;;;;-2.20;99.90;;;;;;5045643;28;19912;-87
2024/01/26 03:57:28;;;;;;;;;;;-2.20;99.90;;;;;;5028811;28;19924;-87
2024/01/26 03:59:54;;;;;;;;;;;-2.20;99.90;;;;;;5034368;28;19905;-88
2024/01/26 04:02:20;;;;;;;;;;;-2.10;99.90;;;;;;5044198;28;19905;-89
2024/01/26 04:04:45;;;;;;;;;;;-2.10;99.90;;;;;;5034986;28;20440;-87
2024/01/26 04:07:11;;;;;;;;;;;-2.10;99.90;;;;;;5033274;28;20326;-87
2024/01/26 04:09:37;;;;;;;;;;;-2.00;99.90;;;;;;5048942;28;20265;-89
2024/01/26 04:12:03;;;;;;;;;;;-2.00;99.90;;;;;;5035328;28;19917;-89
2024/01/26 04:14:29;;;;;;;;;;;-1.90;99.90;;;;;;5035032;28;19928;-86
2024/01/26 04:16:55;;;;;;;;;;;-1.90;99.90;;;;;;5038303;28;19905;-87
2024/01/26 04:19:20;;;;;;;;;;;-1.80;99.90;;;;;;5042699;28;19908;-88
2024/01/26 04:21:49;;;;;;;;;;;-1.80;99.90;;;;;;5048959;28;19916;-86
2024/01/26 04:24:15;;;;;;;;;;;-1.80;99.90;;;;;;5034802;28;19916;-88
2024/01/26 04:26:41;;;;;;;;;;;-1.80;99.90;;;;;;5033620;28;19909;-86
2024/01/26 04:29:10;;;;;;;;;;;-1.80;99.90;;;;;;5026792;28;20351;-88
2024/01/26 04:31:42;;;;;;;;;;;-1.80;99.90;;;;;;5031519;28;19943;-86
2024/01/26 04:34:15;;;;;;;;;;;-1.90;99.90;;;;;;5023878;28;19944;-89
2024/01/26 04:36:45;;;;;;;;;;;-2.00;99.90;;;;;;5034433;28;19912;-85
2024/01/26 04:39:11;;;;;;;;;;;-2.00;99.90;;;;;;5032780;28;19905;-87
2024/01/26 04:41:37;;;;;;;;;;;-2.00;99.90;;;;;;5033439;28;20348;-88
2024/01/26 04:44:02;;;;;;;;;;;-2.10;99.90;;;;;;5033326;28;19963;-84
2024/01/26 04:46:28;;;;;;;;;;;-2.00;99.90;;;;;;5052294;28;19920;-87
2024/01/26 04:48:54;;;;;;;;;;;-2.10;99.90;;;;;;5034739;28;19905;-86
2024/01/26 04:51:19;;;;;;;;;;;-2.10;99.90;;;;;;5057747;28;20445;-85
2024/01/26 04:53:45;;;;;;;;;;;-2.10;99.90;;;;;;5068896;28;20500;-86
2024/01/26 04:56:11;;;;;;;;;;;-2.10;99.90;;;;;;5035564;28;19908;-85
2024/01/26 04:58:37;;;;;;;;;;;-2.20;99.90;;;;;;5054262;28;20242;-86
2024/01/26 05:01:04;;;;;;;;;;;-2.20;99.90;;;;;;5056140;28;19905;-86
2024/01/26 05:03:29;;;;;;;;;;;-2.20;99.90;;;;;;5053099;28;19999;-86
2024/01/26 05:05:55;;;;;;;;;;;-2.20;99.90;;;;;;5053259;28;19948;-85
2024/01/26 05:08:21;;;;;;;;;;;-2.20;99.90;;;;;;5056566;28;19908;-86
2024/01/26 05:10:47;;;;;;;;;;;-2.20;99.90;;;;;;5059393;28;19986;-84
2024/01/26 05:13:12;;;;;;;;;;;-2.20;99.90;;;;;;5035312;28;19904;-85
2024/01/26 05:15:38;;;;;;;;;;;-2.30;99.90;;;;;;5057313;28;19936;-85
2024/01/26 05:18:04;;;;;;;;;;;-2.20;99.90;;;;;;5056194;28;20277;-84
2024/01/26 05:20:29;;;;;;;;;;;-2.30;99.90;;;;;;5053702;28;19912;-85
2024/01/26 05:22:55;;;;;;;;;;;-2.30;99.90;;;;;;5059643;28;19912;-86
2024/01/26 05:25:21;;;;;;;;;;;-2.40;99.90;;;;;;5043074;28;19988;-84
2024/01/26 05:27:47;;;;;;;;;;;-2.40;99.90;;;;;;5060634;28;19904;-82
2024/01/26 05:30:12;;;;;;;;;;;-2.40;99.90;;;;;;5056028;28;19905;-84
2024/01/26 05:32:38;;;;;;;;;;;-2.40;99.90;;;;;;5060192;28;19991;-85
2024/01/26 05:35:04;;;;;;;;;;;-2.50;99.90;;;;;;5061022;28;19915;-85
2024/01/26 05:37:29;;;;;;;;;;;-2.50;99.90;;;;;;5049439;28;19905;-84
2024/01/26 05:39:55;;;;;;;;;;;-2.50;99.90;;;;;;5056958;28;20373;-85
2024/01/26 05:42:21;;;;;;;;;;;-2.50;99.90;;;;;;5057660;28;19948;-84
2024/01/26 05:44:46;;;;;;;;;;;-2.50;99.90;;;;;;5061221;28;19924;-86
2024/01/26 05:47:12;;;;;;;;;;;-2.60;99.90;;;;;;5062479;28;20370;-86
2024/01/26 05:49:38;;;;;;;;;;;-2.60;99.90;;;;;;5057656;28;19911;-87
2024/01/26 05:52:03;;;;;;;;;;;-2.60;99.90;;;;;;5043486;28;19923;-86
2024/01/26 05:54:29;;;;;;;;;;;-2.60;99.90;;;;;;5063018;28;20281;-86
2024/01/26 05:56:55;;;;;;;;;;;-2.60;99.90;;;;;;5042641;28;19928;-87
2024/01/26 05:59:20;;;;;;;;;;;-2.60;99.90;;;;;;5057970;28;19915;-88
2024/01/26 06:01:46;;;;;;;;;;;-2.60;99.90;;;;;;5060547;28;19965;-85
2024/01/26 06:04:12;;;;;;;;;;;-2.50;99.90;;;;;;5061366;28;19931;-87
2024/01/26 06:06:38;;;;;;;;;;;-2.50;99.90;;;;;;5068829;28;19912;-86
2024/01/26 06:09:03;;;;;;;;;;;-2.50;99.90;;;;;;5042095;28;19908;-85
2024/01/26 06:11:29;;;;;;;;;;;-2.60;99.90;;;;;;5039664;28;20476;-86
2024/01/26 06:13:55;;;;;;;;;;;-2.60;99.90;;;;;;5056981;28;19950;-87
2024/01/26 06:16:21;;;;;;;;;;;-2.60;99.90;;;;;;5037831;28;19909;-85
2024/01/26 06:18:46;;;;;;;;;;;-2.60;99.90;;;;;;5056954;28;19904;-85
2024/01/26 06:21:12;;;;;;;;;;;-2.50;99.90;;;;;;5057732;28;19909;-86
2024/01/26 06:23:38;;;;;;;;;;;-2.50;99.90;;;;;;5041194;28;20006;-85
2024/01/26 06:26:06;;;;;;;;;;;-2.50;99.90;;;;;;5061071;28;19940;-86
2024/01/26 06:28:33;;;;;;;;;;;-2.40;99.90;;;;;;5043660;28;19947;-84
2024/01/26 06:30:59;;;;;;;;;;;-2.40;99.90;;;;;;5057075;28;19919;-86
2024/01/26 06:33:25;;;;;;;;;;;-2.40;99.90;;;;;;5054424;28;20366;-85
2024/01/26 06:35:50;;;;;;;;;;;-2.40;99.90;;;;;;5055271;28;19909;-85
2024/01/26 06:38:16;;;;;;;;;;;-2.40;99.90;;;;;;5037547;28;19908;-84
2024/01/26 06:40:42;;;;;;;;;;;-2.50;99.90;;;;;;5037598;28;19944;-85
2024/01/26 06:43:08;;;;;;;;;;;-2.50;99.90;;;;;;5034797;28;19912;-86
2024/01/26 06:45:34;;;;;;;;;;;-2.50;99.90;;;;;;5042968;28;19917;-87
2024/01/26 06:48:00;;;;;;;;;;;-2.50;99.90;;;;;;5052582;28;19939;-86
2024/01/26 06:50:26;;;;;;;;;;;-2.50;99.90;;;;;;5042199;28;20381;-84
2024/01/26 06:52:52;;;;;;;;;;;-2.50;99.90;;;;;;5054191;28;19919;-84
2024/01/26 06:55:17;;;;;;;;;;;-2.40;99.90;;;;;;5036919;28;19904;-86
2024/01/26 06:57:43;;;;;;;;;;;-2.40;99.90;;;;;;5054911;28;19904;-86
2024/01/26 07:00:09;;;;;;;;;;;-2.40;99.90;;;;;;5055181;28;19966;-85
2024/01/26 07:02:35;;;;;;;;;;;-2.40;99.90;;;;;;5054715;28;19905;-86
2024/01/26 07:05:02;;;;;;;;;;;-2.40;99.90;;;;;;5051643;28;19966;-86
2024/01/26 07:07:28;;;;;;;;;;;-2.40;99.90;;;;;;5053031;28;19978;-84
2024/01/26 07:09:55;;;;;;;;;;;-2.40;99.90;;;;;;5055052;28;19940;-85
2024/01/26 07:12:20;;;;;;;;;;;-2.30;99.90;;;;;;5054799;28;19913;-84
2024/01/26 07:14:46;;;;;;;;;;;-2.30;99.90;;;;;;5055261;28;19908;-87
2024/01/26 07:17:12;;;;;;;;;;;-2.30;99.90;;;;;;5055385;28;19912;-85
2024/01/26 07:19:37;;;;;;;;;;;-2.30;99.90;;;;;;5053362;28;19966;-86
2024/01/26 07:22:05;;;;;;;;;;;-2.30;99.90;;;;;;5053370;28;19924;-85
2024/01/26 07:24:31;;;;;;;;;;;-2.20;99.90;;;;;;5050526;28;19909;-88
2024/01/26 07:26:56;;;;;;;;;;;-2.30;99.90;;;;;;5036379;28;19909;-86
2024/01/26 07:29:22;;;;;;;;;;;-2.20;99.90;;;;;;5054282;28;19911;-86
2024/01/26 07:31:50;;;;;;;;;;;-2.30;99.90;;;;;;5052969;28;19948;-85
2024/01/26 07:34:16;;;;;;;;;;;-2.30;99.90;;;;;;5036641;28;19995;-87
2024/01/26 07:36:42;;;;;;;;;;;-2.30;99.90;;;;;;5053990;28;19971;-86
2024/01/26 07:39:07;;;;;;;;;;;-2.30;99.90;;;;;;5036112;28;20293;-85
2024/01/26 07:41:36;;;;;;;;;;;-2.30;99.90;;;;;;5054169;28;19904;-86
2024/01/26 07:44:02;;;;;;;;;;;-2.20;99.90;;;;;;5054215;28;20612;-89
2024/01/26 07:46:28;;;;;;;;;;;-2.10;99.90;;;;;;5048486;28;19916;-83
2024/01/26 07:48:53;;;;;;;;;;;-2.00;99.90;;;;;;5053943;28;19909;-81
2024/01/26 07:51:19;;;;;;;;;;;-2.00;99.90;;;;;;5060844;28;19984;-79
2024/01/26 07:53:45;;;;;;;;;;;-1.90;99.90;;;;;;5063915;28;19913;-80
2024/01/26 07:56:11;;;;;;;;;;;-1.80;99.90;;;;;;5054715;28;20377;-81
2024/01/26 07:58:36;;;;;;;;;;;-1.70;99.90;;;;;;5053407;28;20320;-79
2024/01/26 08:01:02;;;;;;;;;;;-1.60;99.90;;;;;;5056738;28;20309;-81
2024/01/26 08:03:30;;;;;;;;;;;-1.50;99.90;;;;;;5052576;28;20317;-82
2024/01/26 08:05:56;;;;;;;;;;;-1.40;99.90;;;;;;5051235;28;20396;-81
2024/01/26 08:08:22;;;;;;;;;;;-1.40;99.90;;;;;;5058064;28;19995;-83
2024/01/26 08:10:48;;;;;;;;;;;-1.30;99.90;;;;;;5039685;28;19920;-82
2024/01/26 08:13:13;;;;;;;;;;;-1.20;99.90;;;;;;5052888;28;19917;-81
2024/01/26 08:15:39;;;;;;;;;;;-1.10;99.90;;;;;;5041886;28;19916;-84
2024/01/26 08:18:05;;;;;;;;;;;-1.10;99.90;;;;;;5046062;28;20003;-82
2024/01/26 08:20:30;;;;;;;;;;;-1.10;99.90;;;;;;5034752;28;20004;-82
2024/01/26 08:22:56;;;;;;;;;;;-1.10;99.90;;;;;;5050026;28;19915;-81
2024/01/26 08:25:22;;;;;;;;;;;-1.00;99.90;;;;;;5029446;28;19909;-81
2024/01/26 08:27:51;;;;;;;;;;;-1.00;99.90;;;;;;5047408;28;19905;-80
2024/01/26 08:30:17;;;;;;;;;;;-0.90;99.90;;;;;;5034061;28;19917;-80
2024/01/26 08:32:43;;;;;;;;;;;-0.90;99.90;;;;;;5031481;28;20397;-81
2024/01/26 08:35:09;;;;;;;;;;;-0.90;99.90;;;;;;5052163;28;19948;-82
2024/01/26 08:37:35;;;;;;;;;;;-0.80;99.90;;;;;;5035643;28;19927;-83
2024/01/26 08:40:01;;;;;;;;;;;-0.80;99.90;;;;;;5052807;28;19987;-81
2024/01/26 08:42:27;;;;;;;;;;;-0.80;99.90;;;;;;5053056;28;19905;-83
2024/01/26 08:44:52;;;;;;;;;;;-0.70;99.90;;;;;;5035645;28;19916;-85
2024/01/26 08:47:18;;;;;;;;;;;-0.80;99.90;;;;;;5051297;28;19904;-84
2024/01/26 08:49:44;;;;;;;;;;;-0.80;99.90;;;;;;5034973;28;19905;-83
2024/01/26 08:52:10;;;;;;;;;;;-0.80;99.90;;;;;;5034253;28;19917;-83
2024/01/26 08:54:35;;;;;;;;;;;-0.80;99.90;;;;;;5052366;28;19915;-82
2024/01/26 08:57:01;;;;;;;;;;;-0.80;99.90;;;;;;5053411;28;20380;-83
2024/01/26 08:59:28;;;;;;;;;;;-0.70;99.90;;;;;;5035925;28;19904;-83
2024/01/26 09:01:54;;;;;;;;;;;-0.70;99.90;;;;;;5034323;28;19905;-82
2024/01/26 09:04:20;;;;;;;;;;;-0.60;99.90;;;;;;5051983;28;19927;-84
2024/01/26 09:06:45;;;;;;;;;;;-0.60;99.90;;;;;;5052201;28;19986;-82
2024/01/26 09:09:12;;;;;;;;;;;-0.60;99.90;;;;;;5051195;28;19944;-84
2024/01/26 09:11:37;;;;;;;;;;;-0.60;99.90;;;;;;5052154;28;19940;-84
2024/01/26 09:14:03;;;;;;;;;;;-0.60;99.90;;;;;;5052106;28;19905;-80
2024/01/26 09:16:29;;;;;;;;;;;-0.70;99.90;;;;;;5051935;28;19908;-81
2024/01/26 09:18:54;;;;;;;;;;;-0.70;99.90;;;;;;5052297;28;19908;-82
2024/01/26 09:21:23;;;;;;;;;;;-0.80;99.90;;;;;;5034696;28;19905;-79
2024/01/26 09:23:49;;;;;;;;;;;-0.90;99.90;;;;;;5034863;28;20331;-80
2024/01/26 09:26:14;;;;;;;;;;;-0.90;99.90;;;;;;5052767;28;19905;-81
2024/01/26 09:28:40;;;;;;;;;;;-0.90;99.90;;;;;;5038106;28;19909;-82
2024/01/26 09:31:06;;;;;;;;;;;-0.90;99.90;;;;;;5056560;28;20373;-84
2024/01/26 09:33:32;;;;;;;;;;;-0.90;99.90;;;;;;5061487;28;20427;-83
2024/01/26 09:35:58;;;;;;;;;;;-0.90;99.90;;;;;;5063646;28;19905;-81
2024/01/26 09:38:24;;;;;;;;;;;-0.90;99.90;;;;;;5062627;28;19904;-81
2024/01/26 09:40:50;;;;;;;;;;;-0.90;99.90;;;;;;5059898;28;19909;-83
2024/01/26 09:43:16;;;;;;;;;;;-1.00;99.90;;;;;;5037759;28;20335;-83
2024/01/26 09:45:42;;;;;;;;;;;-0.90;99.90;;;;;;5055862;28;19921;-81
2024/01/26 09:48:09;;;;;;;;;;;-0.90;99.90;;;;;;5054579;28;20408;-80
2024/01/26 09:50:35;;;;;;;;;;;-1.00;99.90;;;;;;5037385;28;20378;-81
2024/01/26 09:53:02;;;;;;;;;;;-1.00;99.90;;;;;;5037651;28;20015;-84
2024/01/26 09:55:29;;;;;;;;;;;-1.00;99.90;;;;;;5056089;28;20445;-84
2024/01/26 09:57:56;;;;;;;;;;;-1.00;99.90;;;;;;5049077;28;20389;-82
2024/01/26 10:00:21;;;;;;;;;;;-1.10;99.90;;;;;;5055123;28;19954;-81
2024/01/26 10:02:47;;;;;;;;;;;-1.10;99.90;;;;;;5055042;28;19984;-81
2024/01/26 10:05:16;;;;;;;;;;;-1.10;99.90;;;;;;5037220;28;19931;-83
2024/01/26 10:07:42;;;;;;;;;;;-1.10;99.90;;;;;;5055371;28;19915;-82
2024/01/26 10:10:08;;;;;;;;;;;-1.00;99.90;;;;;;5055230;28;19904;-81
2024/01/26 10:12:37;;;;;;;;;;;-0.90;99.90;;;;;;5037793;28;19909;-83
2024/01/26 10:15:03;;;;;;;;;;;-0.90;99.90;;;;;;5055168;28;20005;-83
2024/01/26 10:17:30;;;;;;;;;;;-0.80;99.90;;;;;;5036978;28;19905;-81
2024/01/26 10:20:14;;;;;;;;;;;-0.80;99.90;;;;;;5054858;28;19923;-81
2024/01/26 10:22:40;;;;;;;;;;;-0.70;99.90;;;;;;5037725;28;20023;-81
2024/01/26 10:25:09;;;;;;;;;;;-0.60;99.90;;;;;;5036946;28;19920;-82
2024/01/26 10:27:38;;;;;;;;;;;-0.60;99.90;;;;;;5037033;28;19905;-80
2024/01/26 10:30:07;;;;;;;;;;;-0.50;99.90;;;;;;5036713;28;19911;-80
2024/01/26 10:32:33;;;;;;;;;;;-0.50;99.90;;;;;;5047408;28;19999;-86
2024/01/26 10:34:59;;;;;;;;;;;-0.50;99.90;;;;;;5037343;28;19944;-83
2024/01/26 10:37:29;;;;;;;;;;;-0.50;99.90;;;;;;5054270;28;19908;-83
2024/01/26 10:39:56;;;;;;;;;;;-0.50;99.90;;;;;;5056200;28;19905;-83
2024/01/26 10:42:22;;;;;;;;;;;-0.50;99.90;;;;;;5057245;28;20373;-83
2024/01/26 10:44:49;;;;;;;;;;;-0.60;99.90;;;;;;5057230;28;19978;-83
2024/01/26 10:47:16;;;;;;;;;;;-0.60;99.90;;;;;;5056049;28;19905;-84
2024/01/26 10:49:43;;;;;;;;;;;-0.60;99.90;;;;;;5058479;28;19905;-86
2024/01/26 10:52:09;;;;;;;;;;;-0.60;99.90;;;;;;5056753;28;19913;-84
2024/01/26 10:54:35;;;;;;;;;;;-0.60;99.90;;;;;;5055207;28;19949;-83
2024/01/26 10:57:01;;;;;;;;;;;-0.50;99.90;;;;;;5055199;28;19909;-83
2024/01/26 10:59:27;;;;;;;;;;;-0.50;99.90;;;;;;5037675;28;19912;-83
2024/01/26 11:01:53;;;;;;;;;;;-0.40;99.90;;;;;;5055646;28;20297;-85
2024/01/26 11:04:19;;;;;;;;;;;-0.40;99.90;;;;;;5038040;28;19951;-82
2024/01/26 11:06:45;;;;;;;;;;;-0.40;99.90;;;;;;5040590;28;19909;-81
2024/01/26 11:09:11;;;;;;;;;;;-0.40;99.90;;;;;;5056473;28;19905;-81
2024/01/26 11:11:38;;;;;;;;;;;-0.40;99.90;;;;;;5050708;28;19916;-85
2024/01/26 11:14:10;;;;;;;;;;;-0.30;99.90;;;;;;5057801;28;19905;-87
2024/01/26 11:16:42;;;;;;;;;;;-0.30;99.90;;;;;;5056306;28;19920;-85
2024/01/26 11:19:08;;;;;;;;;;;-0.30;99.90;;;;;;5039220;28;19904;-83
2024/01/26 11:21:37;;;;;;;;;;;-0.30;99.90;;;;;;5060079;28;20381;-83
2024/01/26 11:24:11;;;;;;;;;;;-0.30;99.90;;;;;;5064919;28;19950;-84
2024/01/26 11:26:37;;;;;;;;;;;-0.20;99.90;;;;;;5062542;28;19908;-84
2024/01/26 11:29:12;;;;;;;;;;;-0.20;99.90;;;;;;5047145;28;19948;-85
2024/01/26 11:31:39;;;;;;;;;;;-0.10;99.90;;;;;;5057035;28;20006;-86
2024/01/26 11:34:04;;;;;;;;;;;-0.10;99.90;;;;;;5038336;28;19911;-86
2024/01/26 11:36:33;;;;;;;;;;;-0.10;99.90;;;;;;5057927;28;19999;-87
2024/01/26 11:38:59;;;;;;;;;;;0.00;99.90;;;;;;5056710;28;19951;-82
2024/01/26 11:41:25;;;;;;;;;;;-0.10;99.90;;;;;;5037550;28;20416;-82
2024/01/26 11:43:54;;;;;;;;;;;-0.10;99.90;;;;;;5054943;28;20025;-82
2024/01/26 11:46:20;;;;;;;;;;;-0.10;99.90;;;;;;5052652;28;19995;-83
2024/01/26 11:48:45;;;;;;;;;;;-0.10;99.90;;;;;;5036646;28;19948;-81
2024/01/26 11:51:11;;;;;;;;;;;-0.20;99.90;;;;;;5036509;28;19924;-82
2024/01/26 11:53:37;;;;;;;;;;;-0.20;99.90;;;;;;5029243;28;20015;-81
2024/01/26 11:56:04;;;;;;;;;;;-0.20;99.90;;;;;;5036782;28;19957;-83
2024/01/26 11:58:31;;;;;;;;;;;-0.30;99.90;;;;;;5038588;28;19951;-83
2024/01/26 12:00:59;;;;;;;;;;;-0.30;99.90;;;;;;5053582;28;19909;-85
2024/01/26 12:03:26;;;;;;;;;;;-0.30;99.90;;;;;;5053526;28;19919;-84
2024/01/26 12:05:51;;;;;;;;;;;-0.40;99.90;;;;;;5053752;28;19909;-82
2024/01/26 12:08:17;;;;;;;;;;;-0.40;99.90;;;;;;5035381;28;20371;-83
2024/01/26 12:10:43;;;;;;;;;;;-0.40;99.90;;;;;;5052984;28;19909;-83
2024/01/26 12:13:10;;;;;;;;;;;-0.30;99.90;;;;;;5053115;28;20275;-83
2024/01/26 12:15:39;;;;;;;;;;;-0.30;99.90;;;;;;5034020;28;20815;-83
2024/01/26 12:18:13;;;;;;;;;;;-0.30;99.90;;;;;;5053293;28;19912;-84
2024/01/26 12:20:39;;;;;;;;;;;-0.40;99.90;;;;;;5053046;28;20003;-86
2024/01/26 12:23:13;;;;;;;;;;;-0.50;99.90;;;;;;5034787;28;19959;-83
2024/01/26 12:25:39;;;;;;;;;;;-0.50;99.90;;;;;;5053383;28;19915;-83
2024/01/26 12:28:05;;;;;;;;;;;-0.60;99.90;;;;;;5040645;28;19909;-85
2024/01/26 12:30:31;;;;;;;;;;;-0.50;99.90;;;;;;5059562;28;20675;-83
2024/01/26 12:33:03;;;;;;;;;;;-0.60;99.90;;;;;;5037918;28;20008;-83
2024/01/26 12:35:31;;;;;;;;;;;-0.60;99.90;;;;;;5056033;28;19905;-83
2024/01/26 12:38:00;;;;;;;;;;;-0.50;99.90;;;;;;5061022;28;19908;-83
2024/01/26 12:40:25;;;;;;;;;;;-0.50;99.90;;;;;;5064211;28;19912;-84
2024/01/26 12:42:51;;;;;;;;;;;-0.50;99.90;;;;;;5043990;28;19954;-81
2024/01/26 12:45:17;;;;;;;;;;;-0.60;99.90;;;;;;5052640;28;19916;-84
2024/01/26 12:47:42;;;;;;;;;;;-0.60;99.90;;;;;;5052369;28;20373;-82
2024/01/26 12:50:08;;;;;;;;;;;-0.60;99.90;;;;;;5051950;28;19908;-79
2024/01/26 12:52:37;;;;;;;;;;;-0.50;99.90;;;;;;5052609;28;19916;-82
2024/01/26 12:55:03;;;;;;;;;;;-0.50;99.90;;;;;;5053143;28;19905;-81
2024/01/26 12:57:30;;;;;;;;;;;-0.50;99.90;;;;;;5035138;28;19905;-83
2024/01/26 12:59:55;;;;;;;;;;;-0.50;99.90;;;;;;5051990;28;19916;-83
2024/01/26 13:02:21;;;;;;;;;;;-0.60;99.90;;;;;;5034362;28;20349;-83
2024/01/26 13:04:50;;;;;;;;;;;-0.70;99.90;;;;;;5052249;28;19905;-80
2024/01/26 13:07:16;;;;;;;;;;;-0.70;99.90;;;;;;5035023;28;20487;-84
2024/01/26 13:09:42;;;;;;;;;;;-0.80;99.90;;;;;;5040042;28;19915;-81
2024/01/26 13:12:09;;;;;;;;;;;-0.90;99.90;;;;;;5053368;28;19920;-85
2024/01/26 13:14:34;;;;;;;;;;;-0.90;99.90;;;;;;5034390;28;20253;-84
2024/01/26 13:17:00;;;;;;;;;;;-1.00;99.90;;;;;;5052620;28;19905;-82
2024/01/26 13:19:26;;;;;;;;;;;-1.00;99.90;;;;;;5053131;28;19938;-84
2024/01/26 13:21:52;;;;;;;;;;;-1.00;99.90;;;;;;5052718;28;19943;-83
2024/01/26 13:24:18;;;;;;;;;;;-1.00;99.90;;;;;;5053986;28;19955;-84
2024/01/26 13:26:44;;;;;;;;;;;-0.90;99.90;;;;;;5053598;28;19943;-84
2024/01/26 13:29:11;;;;;;;;;;;-1.00;99.90;;;;;;5053121;28;19927;-82
2024/01/26 13:31:37;;;;;;;;;;;-0.90;99.90;;;;;;5034792;28;20358;-84
2024/01/26 13:34:03;;;;;;;;;;;-0.90;99.90;;;;;;5052240;28;19912;-83
2024/01/26 13:36:28;;;;;;;;;;;-0.90;99.90;;;;;;5053016;28;19905;-86
2024/01/26 13:38:54;;;;;;;;;;;-1.10;99.90;;;;;;5035432;28;20277;-84
2024/01/26 13:41:20;;;;;;;;;;;-1.10;99.90;;;;;;5034856;28;20003;-82
2024/01/26 13:43:48;;;;;;;;;;;-1.20;99.90;;;;;;5052850;28;20033;-84
2024/01/26 13:46:14;;;;;;;;;;;-1.30;99.90;;;;;;5035380;28;20270;-83
2024/01/26 13:48:39;;;;;;;;;;;-1.30;99.90;;;;;;5034818;28;19919;-84
2024/01/26 13:51:05;;;;;;;;;;;-1.40;99.90;;;;;;5054337;28;19921;-86
2024/01/26 13:53:31;;;;;;;;;;;-1.40;99.90;;;;;;5052470;28;19915;-83
2024/01/26 13:55:57;;;;;;;;;;;-1.40;99.90;;;;;;5034347;28;19967;-82
2024/01/26 13:58:23;;;;;;;;;;;-1.50;99.90;;;;;;5052469;28;19908;-83
2024/01/26 14:00:49;;;;;;;;;;;-1.50;99.90;;;;;;5033366;28;19909;-82
2024/01/26 14:03:14;;;;;;;;;;;-1.60;99.90;;;;;;5052184;28;19950;-84
2024/01/26 14:05:43;;;;;;;;;;;-1.60;99.90;;;;;;5033881;28;19905;-83
2024/01/26 14:08:09;;;;;;;;;;;-1.60;99.90;;;;;;5039378;28;20381;-85
2024/01/26 14:10:34;;;;;;;;;;;-1.50;99.90;;;;;;5052295;28;19955;-84